Terminal Aerodrome Forecast
Issued by NWS Milwaukee/Sullivan, WI

Home | Current Version | Previous Version | Text Only | Print | Product List | Glossary On
Versions: 1 2 3 4 5 6 7 8 9 10 11 12 13 14 15 16 17 18 19 20 21 22 23 24 25 26 27 28 29 30 31 32 33 34 35 36 37 38 39 40 41 42 43 44 45 46 47 48 49 50
000
FTUS43 KMKX 212106 AAE
TAFMKE
TAF AMD
KMKE 212106Z 2121/2224 14006KT P6SM SCT040
     FM220100 22007KT 4SM BR BKN008
     FM220600 00000KT 1/2SM FG BKN004
     FM221300 00000KT 3/4SM BR BKN008
     FM221800 02006KT P6SM BKN020
     FM222300 36008KT 4SM BR BKN020=

USA.gov is the U.S. government's official web portal to all federal, state and local government web resources and services.